createdAt,value
2023-01-27T00:03:31.081Z,1.39
2023-01-27T00:08:33.911Z,1.42
2023-01-27T00:13:36.636Z,1.37
2023-01-27T00:18:40.771Z,1.44
2023-01-27T00:24:01.060Z,1.42
2023-01-27T00:29:03.821Z,1.45
2023-01-27T00:34:11.720Z,1.38
2023-01-27T00:39:15.223Z,1.44
2023-01-27T00:44:19.611Z,1.44
2023-01-27T00:49:25.030Z,1.48
2023-01-27T00:54:27.793Z,1.43
2023-01-27T00:59:31.624Z,1.45
2023-01-27T01:04:35.646Z,1.47
2023-01-27T01:09:38.284Z,1.54
2023-01-27T01:14:40.929Z,1.52
2023-01-27T01:19:44.929Z,1.53
2023-01-27T01:24:47.587Z,1.58
2023-01-27T01:29:50.237Z,1.58
2023-01-27T01:34:54.666Z,1.63
2023-01-27T01:39:57.395Z,1.61
2023-01-27T01:45:41.760Z,1.62
2023-01-27T01:50:51.488Z,1.65
2023-01-27T01:55:54.352Z,1.65
2023-01-27T02:00:57.047Z,1.62
2023-01-27T02:06:02.314Z,1.68
2023-01-27T02:11:05.444Z,1.75
2023-01-27T02:16:09.536Z,1.76
2023-01-27T02:21:14.237Z,1.76
2023-01-27T02:26:21.553Z,1.76
2023-01-27T02:31:25.159Z,1.73
2023-01-27T02:36:31.573Z,1.82
2023-01-27T02:41:41.018Z,1.80
2023-01-27T02:46:44.350Z,1.85
2023-01-27T02:51:47.181Z,1.83
2023-01-27T02:56:54.593Z,1.90
2023-01-27T03:02:00.341Z,1.93
2023-01-27T03:07:04.486Z,1.98
2023-01-27T03:12:20.704Z,1.95
2023-01-27T03:17:40.918Z,1.98
2023-01-27T03:22:43.824Z,1.99
2023-01-27T03:27:50.107Z,1.99
2023-01-27T03:33:12.993Z,1.99
2023-01-27T03:38:39.155Z,1.96
2023-01-27T03:44:00.699Z,1.99
2023-01-27T03:49:03.459Z,2.00
2023-01-27T03:54:06.153Z,2.04
2023-01-27T03:59:10.190Z,1.89
2023-01-27T04:04:30.330Z,1.95
2023-01-27T04:09:35.879Z,1.93
2023-01-27T04:14:42.031Z,1.94
2023-01-27T04:19:45.143Z,1.94
2023-01-27T04:24:47.928Z,1.97
2023-01-27T04:29:52.056Z,2.04
2023-01-27T04:34:54.822Z,2.03
2023-01-27T04:39:57.536Z,2.03
2023-01-27T04:45:01.548Z,2.09
2023-01-27T04:50:04.563Z,2.14
2023-01-27T04:55:08.289Z,2.13
2023-01-27T05:00:16.676Z,2.14
2023-01-27T05:05:20.181Z,2.20
2023-01-27T05:10:23.045Z,2.23
2023-01-27T05:15:27.278Z,2.23
2023-01-27T05:20:31.608Z,2.21
2023-01-27T05:25:34.259Z,2.23
2023-01-27T05:30:38.318Z,2.26
2023-01-27T05:35:41.077Z,2.26
2023-01-27T05:40:43.813Z,2.27
2023-01-27T05:45:47.948Z,2.25
2023-01-27T05:50:58.620Z,2.33
2023-01-27T05:56:01.548Z,2.25
2023-01-27T06:01:10.639Z,2.33
2023-01-27T06:06:15.152Z,2.33
2023-01-27T06:11:19.901Z,2.34
2023-01-27T06:16:25.169Z,2.38
2023-01-27T06:21:28.064Z,2.43
2023-01-27T06:26:30.883Z,2.45
2023-01-27T06:31:35.076Z,2.45
2023-01-27T06:36:38.545Z,2.46
2023-01-27T06:41:41.276Z,2.41
2023-01-27T06:46:45.409Z,2.50
2023-01-27T06:51:48.191Z,2.50
2023-01-27T06:56:51.279Z,2.49
2023-01-27T07:01:55.384Z,2.53
2023-01-27T07:06:58.331Z,2.56
2023-01-27T07:12:01.079Z,2.55
2023-01-27T07:17:05.197Z,2.57
2023-01-27T07:22:08.033Z,2.57
2023-01-27T07:27:10.826Z,2.60
2023-01-27T07:32:14.937Z,2.56
2023-01-27T07:37:17.736Z,2.63
2023-01-27T07:42:20.508Z,2.67
2023-01-27T07:47:26.890Z,2.90
2023-01-27T07:52:29.682Z,3.04
2023-01-27T07:57:32.488Z,3.20
2023-01-27T08:02:36.605Z,3.24
2023-01-27T08:07:39.333Z,3.17
2023-01-27T08:12:42.106Z,3.23
2023-01-27T08:17:46.244Z,3.25
2023-01-27T08:22:48.973Z,3.26
2023-01-27T08:27:52.091Z,3.09
2023-01-27T08:32:56.262Z,2.99
2023-01-27T08:37:59.028Z,2.97
2023-01-27T08:43:04.695Z,2.99
2023-01-27T08:48:09.929Z,3.02
2023-01-27T08:53:13.834Z,2.99
2023-01-27T08:58:17.430Z,3.00
2023-01-27T09:03:21.644Z,2.86
2023-01-27T09:08:25.348Z,2.82
2023-01-27T09:13:28.809Z,2.79
2023-01-27T09:18:33.140Z,2.89
2023-01-27T09:23:35.925Z,2.94
2023-01-27T09:28:38.719Z,3.05
2023-01-27T09:33:42.831Z,2.88
2023-01-27T09:38:49.709Z,2.90
2023-01-27T09:44:11.660Z,2.92
2023-01-27T09:49:35.507Z,2.87
2023-01-27T09:54:55.538Z,2.81
2023-01-27T10:00:12.413Z,2.93
2023-01-27T10:05:32.814Z,2.98
2023-01-27T10:10:51.850Z,2.78
2023-01-27T10:16:11.134Z,2.57
2023-01-27T10:21:22.676Z,2.77
2023-01-27T10:26:32.454Z,3.19
2023-01-27T10:31:37.894Z,3.22
2023-01-27T10:36:51.238Z,3.39
2023-01-27T10:42:02.962Z,3.77
2023-01-27T10:47:15.005Z,3.70
2023-01-27T10:52:25.049Z,3.53
2023-01-27T10:57:34.458Z,3.48
2023-01-27T11:02:42.661Z,3.60
2023-01-27T11:07:51.209Z,3.72
2023-01-27T11:12:57.720Z,3.86
2023-01-27T11:18:04.978Z,4.47
2023-01-27T11:23:18.489Z,4.35
2023-01-27T11:28:32.362Z,4.11
2023-01-27T11:33:47.979Z,4.00
2023-01-27T11:38:52.252Z,3.86
2023-01-27T11:43:55.046Z,3.95
2023-01-27T11:48:59.857Z,3.63
2023-01-27T11:54:09.571Z,3.49
2023-01-27T11:59:18.627Z,3.43
2023-01-27T12:04:30.029Z,3.60
2023-01-27T12:09:39.392Z,3.93
2023-01-27T12:14:49.269Z,4.50
2023-01-27T12:19:55.218Z,4.56
2023-01-27T12:25:02.308Z,4.40
2023-01-27T12:30:09.108Z,4.45
2023-01-27T12:35:21.567Z,4.41
2023-01-27T12:40:28.205Z,4.67
2023-01-27T12:45:34.977Z,4.55
2023-01-27T12:50:39.053Z,4.00
2023-01-27T12:55:47.064Z,3.92
2023-01-27T13:00:49.906Z,4.03
2023-01-27T13:05:55.901Z,4.65
2023-01-27T13:11:02.937Z,4.62
2023-01-27T13:16:19.064Z,4.14
2023-01-27T13:21:26.547Z,3.84
2023-01-27T13:26:33.738Z,3.75
2023-01-27T13:31:44.065Z,3.72
2023-01-27T13:36:52.853Z,3.85
2023-01-27T13:42:06.805Z,4.00
2023-01-27T13:47:17.328Z,3.83
2023-01-27T13:52:20.090Z,3.67
2023-01-27T13:57:48.847Z,3.50
2023-01-27T14:03:16.730Z,3.46
2023-01-27T14:08:41.788Z,3.48
2023-01-27T14:14:03.995Z,3.58
2023-01-27T14:19:21.830Z,3.46
2023-01-27T14:24:34.103Z,3.33
2023-01-27T14:29:47.052Z,3.24
2023-01-27T14:35:05.509Z,3.34
2023-01-27T14:40:19.869Z,3.30
2023-01-27T14:45:29.835Z,3.23
2023-01-27T14:50:37.998Z,3.29
2023-01-27T14:55:48.260Z,3.33
2023-01-27T15:01:03.509Z,3.21
2023-01-27T15:06:12.043Z,3.12
2023-01-27T15:11:34.934Z,3.05
2023-01-27T15:16:58.783Z,3.09
2023-01-27T15:22:41.147Z,3.06
2023-01-27T15:27:44.442Z,2.89
2023-01-27T15:32:48.596Z,2.84
2023-01-27T15:37:59.083Z,2.78
2023-01-27T15:43:06.057Z,2.76
2023-01-27T15:48:15.870Z,2.71
2023-01-27T15:53:32.217Z,2.64
2023-01-27T15:58:39.744Z,2.53
2023-01-27T16:03:48.807Z,2.61
2023-01-27T16:08:55.254Z,2.43
2023-01-27T16:14:31.253Z,2.44
2023-01-27T16:19:40.747Z,2.42
2023-01-27T16:24:48.425Z,2.38
2023-01-27T16:29:59.225Z,2.27
2023-01-27T16:35:05.373Z,2.27
2023-01-27T16:40:16.481Z,2.33
2023-01-27T16:45:22.995Z,2.34
2023-01-27T16:50:38.217Z,2.32
2023-01-27T16:55:41.119Z,2.31
2023-01-27T17:00:44.680Z,2.21
2023-01-27T17:05:53.411Z,2.23
2023-01-27T17:10:58.249Z,2.26
2023-01-27T17:16:04.585Z,2.23
2023-01-27T17:21:09.791Z,2.24
2023-01-27T17:26:16.784Z,2.09
2023-01-27T17:31:23.397Z,2.17
2023-01-27T17:36:28.076Z,2.27
2023-01-27T17:41:35.903Z,2.27
2023-01-27T17:46:39.322Z,2.25
2023-01-27T17:51:46.513Z,2.31
2023-01-27T17:56:51.891Z,2.33
2023-01-27T18:01:56.347Z,2.30
2023-01-27T18:07:00.522Z,2.22
2023-01-27T18:12:06.721Z,2.25
2023-01-27T18:17:23.048Z,2.15
2023-01-27T18:22:27.354Z,2.02
2023-01-27T18:27:32.766Z,1.96
2023-01-27T18:32:41.297Z,1.82
2023-01-27T18:37:52.612Z,1.80
2023-01-27T18:42:56.239Z,1.84
2023-01-27T18:47:59.835Z,1.80
2023-01-27T18:53:13.862Z,1.67
2023-01-27T18:58:17.909Z,1.75
2023-01-27T19:03:23.978Z,1.78
2023-01-27T19:08:28.420Z,1.61
2023-01-27T19:13:31.232Z,1.70
2023-01-27T19:18:38.474Z,1.77
2023-01-27T19:23:44.663Z,1.79
2023-01-27T19:28:49.390Z,1.77
2023-01-27T19:33:52.133Z,1.66
2023-01-27T19:39:01.932Z,1.49
2023-01-27T19:44:04.820Z,1.68
2023-01-27T19:49:08.498Z,1.66
2023-01-27T19:54:12.900Z,1.69
2023-01-27T19:59:15.617Z,1.77
2023-01-27T20:04:18.581Z,1.76
2023-01-27T20:09:22.697Z,1.76
2023-01-27T20:14:26.097Z,1.81
2023-01-27T20:19:28.845Z,1.81
2023-01-27T20:24:32.953Z,1.77
2023-01-27T20:29:37.162Z,1.79
2023-01-27T20:34:40.500Z,1.80
2023-01-27T20:39:44.783Z,1.82
2023-01-27T20:44:47.504Z,1.79
2023-01-27T20:49:50.317Z,1.74
2023-01-27T20:54:54.487Z,1.65
2023-01-27T20:59:58.625Z,1.66
2023-01-27T21:05:01.428Z,1.60
2023-01-27T21:10:06.740Z,1.52
2023-01-27T21:15:11.071Z,1.48
2023-01-27T21:20:14.169Z,1.45
2023-01-27T21:25:18.511Z,1.39
2023-01-27T21:30:21.562Z,1.39
2023-01-27T21:35:24.337Z,1.34
2023-01-27T21:40:28.852Z,1.29
2023-01-27T21:45:31.634Z,1.19
2023-01-27T21:50:34.420Z,1.15
2023-01-27T21:55:38.525Z,1.09
2023-01-27T22:00:41.349Z,1.00
2023-01-27T22:05:44.872Z,0.86
2023-01-27T22:10:48.999Z,0.85
2023-01-27T22:15:51.973Z,0.90
2023-01-27T22:20:54.711Z,0.93
2023-01-27T22:25:58.910Z,0.93
2023-01-27T22:31:02.921Z,0.98
2023-01-27T22:36:07.339Z,0.94
2023-01-27T22:41:11.465Z,0.93
2023-01-27T22:46:14.234Z,0.95
2023-01-27T22:51:17.371Z,0.94
2023-01-27T22:56:21.560Z,0.88
2023-01-27T23:01:24.349Z,0.95
2023-01-27T23:06:27.194Z,0.81
2023-01-27T23:11:31.370Z,0.82
2023-01-27T23:16:34.166Z,0.84
2023-01-27T23:21:37.426Z,0.80
2023-01-27T23:26:41.531Z,0.90
2023-01-27T23:31:45.436Z,0.98
2023-01-27T23:36:48.739Z,0.97
2023-01-27T23:41:52.882Z,0.95
2023-01-27T23:46:55.670Z,1.05
2023-01-27T23:51:58.444Z,0.98
2023-01-27T23:57:02.561Z,0.98
